createdAt,value
2023-01-13T00:01:10.920Z,8.30
2023-01-13T00:03:43.724Z,8.27
2023-01-13T00:06:17.644Z,8.27
2023-01-13T00:08:51.583Z,8.31
2023-01-13T00:11:23.502Z,8.31
2023-01-13T00:13:53.617Z,8.31
2023-01-13T00:16:24.720Z,8.33
2023-01-13T00:18:57.723Z,8.35
2023-01-13T00:21:29.171Z,8.37
2023-01-13T00:23:59.774Z,8.35
2023-01-13T00:26:33.998Z,8.34
2023-01-13T00:29:06.328Z,8.38
2023-01-13T00:31:36.586Z,8.36
2023-01-13T00:34:09.250Z,8.37
2023-01-13T00:36:39.568Z,8.38
2023-01-13T00:39:10.075Z,8.34
2023-01-13T00:41:52.487Z,8.38
2023-01-13T00:44:23.354Z,8.37
2023-01-13T00:46:53.986Z,8.33
2023-01-13T00:49:26.949Z,8.30
2023-01-13T00:51:56.969Z,8.35
2023-01-13T00:54:27.395Z,8.39
2023-01-13T00:56:57.489Z,8.32
2023-01-13T00:59:27.871Z,8.30
2023-01-13T01:01:58.200Z,8.32
2023-01-13T01:04:30.984Z,8.35
2023-01-13T01:07:01.902Z,8.38
2023-01-13T01:09:33.790Z,8.39
2023-01-13T01:12:04.663Z,8.40
2023-01-13T01:14:34.715Z,8.42
2023-01-13T01:17:05.021Z,8.41
2023-01-13T01:19:39.091Z,8.41
2023-01-13T01:22:09.234Z,8.45
2023-01-13T01:24:39.820Z,8.49
2023-01-13T01:27:09.873Z,8.45
2023-01-13T01:29:39.955Z,8.43
2023-01-13T01:32:10.054Z,8.48
2023-01-13T01:34:42.779Z,8.48
2023-01-13T01:37:12.830Z,8.43
2023-01-13T01:39:42.933Z,8.45
2023-01-13T01:42:30.956Z,8.46
2023-01-13T01:45:13.625Z,8.44
2023-01-13T01:47:46.529Z,8.45
2023-01-13T01:50:21.625Z,8.48
2023-01-13T01:52:59.391Z,8.48
2023-01-13T01:55:33.949Z,8.47
2023-01-13T01:58:10.687Z,8.47
2023-01-13T02:00:41.389Z,8.52
2023-01-13T02:03:12.969Z,8.53
2023-01-13T02:05:45.694Z,8.53
2023-01-13T02:08:17.822Z,8.56
2023-01-13T02:10:56.343Z,8.50
2023-01-13T02:13:24.186Z,8.52
2023-01-13T02:16:05.832Z,8.54
2023-01-13T02:18:57.323Z,8.57
2023-01-13T02:21:57.116Z,8.67
2023-01-13T02:24:55.531Z,8.67
2023-01-13T02:27:44.552Z,8.63
2023-01-13T02:30:49.002Z,8.72
2023-01-13T02:33:37.573Z,8.85
2023-01-13T02:36:20.370Z,8.72
2023-01-13T02:38:57.428Z,8.80
2023-01-13T02:41:52.125Z,8.75
2023-01-13T02:44:31.888Z,8.80
2023-01-13T02:47:11.694Z,8.87
2023-01-13T02:49:47.987Z,8.89
2023-01-13T02:52:25.279Z,8.74
2023-01-13T02:55:02.660Z,8.79
2023-01-13T02:57:38.033Z,8.76
2023-01-13T03:00:12.162Z,8.81
2023-01-13T03:02:44.642Z,8.85
2023-01-13T03:05:30.930Z,8.87
2023-01-13T03:08:18.480Z,8.88
2023-01-13T03:11:04.038Z,8.96
2023-01-13T03:13:53.854Z,8.98
2023-01-13T03:16:34.699Z,9.14
2023-01-13T03:19:17.638Z,9.06
2023-01-13T03:21:56.937Z,9.07
2023-01-13T03:24:36.381Z,9.12
2023-01-13T03:27:15.506Z,9.17
2023-01-13T03:29:52.344Z,9.06
2023-01-13T03:32:28.464Z,9.10
2023-01-13T03:35:08.624Z,9.23
2023-01-13T03:37:44.336Z,9.22
2023-01-13T03:40:20.415Z,9.23
2023-01-13T03:43:22.291Z,9.36
2023-01-13T03:45:59.248Z,9.42
2023-01-13T03:48:33.804Z,9.53
2023-01-13T03:51:10.575Z,9.45
2023-01-13T03:53:46.414Z,10.08
2023-01-13T03:56:27.367Z,9.84
2023-01-13T03:59:00.641Z,9.99
2023-01-13T04:01:38.365Z,10.08
2023-01-13T04:04:13.067Z,10.14
2023-01-13T04:06:57.064Z,10.47
2023-01-13T04:09:36.775Z,10.33
2023-01-13T04:12:14.025Z,10.17
2023-01-13T04:14:45.871Z,10.45
2023-01-13T04:17:16.698Z,10.82
2023-01-13T04:19:46.811Z,10.45
2023-01-13T04:22:19.659Z,10.10
2023-01-13T04:24:49.769Z,9.98
2023-01-13T04:27:19.859Z,10.45
2023-01-13T04:29:50.536Z,10.59
2023-01-13T04:32:20.389Z,10.56
2023-01-13T04:34:50.334Z,10.65
2023-01-13T04:37:22.792Z,9.98
2023-01-13T04:39:52.595Z,10.13
2023-01-13T04:42:22.412Z,10.66
2023-01-13T04:44:52.291Z,10.48
2023-01-13T04:47:22.204Z,10.52
2023-01-13T04:49:52.029Z,10.22
2023-01-13T04:52:24.418Z,10.26
2023-01-13T04:54:54.357Z,9.88
2023-01-13T04:57:24.628Z,9.78
2023-01-13T04:59:54.982Z,9.77
2023-01-13T05:02:24.989Z,9.73
2023-01-13T05:04:54.953Z,9.68
2023-01-13T05:07:27.401Z,9.65
2023-01-13T05:09:57.241Z,9.69
2023-01-13T05:12:40.050Z,9.66
2023-01-13T05:15:23.475Z,9.66
2023-01-13T05:17:53.993Z,9.64
2023-01-13T05:20:23.855Z,9.64
2023-01-13T05:23:09.018Z,9.60
2023-01-13T05:25:44.547Z,9.69
2023-01-13T05:28:14.645Z,9.69
2023-01-13T05:30:49.459Z,9.61
2023-01-13T05:33:22.375Z,9.63
2023-01-13T05:35:52.278Z,9.60
2023-01-13T05:38:24.819Z,9.61
2023-01-13T05:41:07.151Z,9.58
2023-01-13T05:43:37.067Z,9.66
2023-01-13T05:46:09.627Z,9.60
2023-01-13T05:48:42.099Z,9.62
2023-01-13T05:51:14.581Z,9.64
2023-01-13T05:53:47.468Z,9.66
2023-01-13T05:56:18.129Z,9.69
2023-01-13T05:58:48.049Z,9.70
2023-01-13T06:01:17.868Z,9.66
2023-01-13T06:03:47.745Z,9.62
2023-01-13T06:06:17.504Z,9.62
2023-01-13T06:08:49.930Z,9.58
2023-01-13T06:11:19.751Z,9.62
2023-01-13T06:13:49.580Z,9.60
2023-01-13T06:16:19.447Z,9.65
2023-01-13T06:18:49.352Z,9.64
2023-01-13T06:21:19.195Z,9.68
2023-01-13T06:23:51.864Z,9.62
2023-01-13T06:26:25.877Z,9.61
2023-01-13T06:28:55.726Z,9.61
2023-01-13T06:31:28.730Z,9.63
2023-01-13T06:34:04.729Z,9.61
2023-01-13T06:36:43.235Z,9.61
2023-01-13T06:39:21.341Z,9.61
2023-01-13T06:42:08.193Z,9.59
2023-01-13T06:44:38.127Z,9.61
2023-01-13T06:47:09.390Z,9.58
2023-01-13T06:49:40.309Z,9.60
2023-01-13T06:52:10.154Z,9.66
2023-01-13T06:54:42.781Z,9.57
2023-01-13T06:57:12.784Z,9.58
2023-01-13T06:59:42.731Z,9.58
2023-01-13T07:02:12.677Z,9.65
2023-01-13T07:04:42.728Z,9.57
2023-01-13T07:07:13.384Z,9.57
2023-01-13T07:09:45.803Z,9.57
2023-01-13T07:12:15.725Z,9.62
2023-01-13T07:14:58.147Z,9.65
2023-01-13T07:17:28.004Z,9.59
2023-01-13T07:19:58.109Z,9.61
2023-01-13T07:22:27.989Z,9.65
2023-01-13T07:25:00.644Z,9.56
2023-01-13T07:27:30.493Z,9.60
2023-01-13T07:30:00.346Z,9.60
2023-01-13T07:32:30.230Z,9.58
2023-01-13T07:35:04.783Z,9.65
2023-01-13T07:37:35.989Z,9.62
2023-01-13T07:40:09.845Z,9.63
2023-01-13T07:42:54.308Z,9.67
2023-01-13T07:45:24.082Z,9.72
2023-01-13T07:47:56.008Z,9.72
2023-01-13T07:50:26.069Z,9.74
2023-01-13T07:52:55.988Z,9.74
2023-01-13T07:55:28.461Z,9.76
2023-01-13T07:57:58.607Z,9.76
2023-01-13T08:00:28.433Z,9.76
2023-01-13T08:02:58.317Z,9.80
2023-01-13T08:05:28.242Z,9.78
2023-01-13T08:07:58.057Z,9.85
2023-01-13T08:10:30.545Z,9.83
2023-01-13T08:13:12.924Z,9.85
2023-01-13T08:15:42.807Z,9.91
2023-01-13T08:18:13.421Z,9.88
2023-01-13T08:20:43.293Z,9.92
2023-01-13T08:23:13.204Z,9.98
2023-01-13T08:25:45.638Z,10.01
2023-01-13T08:28:15.923Z,10.04
2023-01-13T08:30:45.969Z,10.14
2023-01-13T08:33:16.324Z,10.09
2023-01-13T08:35:46.169Z,10.02
2023-01-13T08:38:16.001Z,10.04
2023-01-13T08:40:48.495Z,10.06
2023-01-13T08:43:18.453Z,10.08
2023-01-13T08:45:48.322Z,10.08
2023-01-13T08:48:18.175Z,10.12
2023-01-13T08:50:48.105Z,10.17
2023-01-13T08:53:18.143Z,10.22
2023-01-13T08:55:50.615Z,10.26
2023-01-13T08:58:20.408Z,10.31
2023-01-13T09:00:50.363Z,10.29
2023-01-13T09:03:20.395Z,10.33
2023-01-13T09:05:51.233Z,10.39
2023-01-13T09:08:21.091Z,10.47
2023-01-13T09:10:53.906Z,10.51
2023-01-13T09:13:21.895Z,10.61
2023-01-13T09:15:52.400Z,10.65
2023-01-13T09:18:22.330Z,10.60
2023-01-13T09:20:52.261Z,10.62
2023-01-13T09:23:22.350Z,10.69
2023-01-13T09:25:55.504Z,10.80
2023-01-13T09:28:25.469Z,10.87
2023-01-13T09:30:57.732Z,11.02
2023-01-13T09:33:40.074Z,11.15
2023-01-13T09:36:10.794Z,11.09
2023-01-13T09:38:40.633Z,11.05
2023-01-13T09:41:34.496Z,11.29
2023-01-13T09:44:07.087Z,11.41
2023-01-13T09:46:47.654Z,11.33
2023-01-13T09:49:23.043Z,11.62
2023-01-13T09:52:00.638Z,12.89
2023-01-13T09:54:38.110Z,13.61
2023-01-13T09:57:13.548Z,14.58
2023-01-13T09:59:44.052Z,13.12
2023-01-13T10:02:34.969Z,12.81
2023-01-13T10:05:06.559Z,12.87
2023-01-13T10:07:45.077Z,12.80
2023-01-13T10:10:24.441Z,12.69
2023-01-13T10:13:09.534Z,12.99
2023-01-13T10:15:39.479Z,12.78
2023-01-13T10:18:18.405Z,12.90
2023-01-13T10:20:59.602Z,12.68
2023-01-13T10:23:59.549Z,12.71
2023-01-13T10:26:47.632Z,13.17
2023-01-13T10:29:28.280Z,14.39
2023-01-13T10:32:01.682Z,16.47
2023-01-13T10:34:31.919Z,18.02
2023-01-13T10:37:06.628Z,18.47
2023-01-13T10:39:43.895Z,17.31
2023-01-13T10:42:19.337Z,15.81
2023-01-13T10:44:57.282Z,16.35
2023-01-13T10:47:30.525Z,15.58
2023-01-13T10:50:22.404Z,15.01
2023-01-13T10:53:02.547Z,15.67
2023-01-13T10:55:37.101Z,15.45
2023-01-13T10:58:16.037Z,15.29
2023-01-13T11:00:49.514Z,14.66
2023-01-13T11:03:23.245Z,14.41
2023-01-13T11:05:59.204Z,14.27
2023-01-13T11:08:32.393Z,14.32
2023-01-13T11:11:04.178Z,13.76
2023-01-13T11:14:01.082Z,13.36
2023-01-13T11:16:33.836Z,12.91
2023-01-13T11:19:14.512Z,12.93
2023-01-13T11:21:55.069Z,13.04
2023-01-13T11:24:37.429Z,13.33
2023-01-13T11:27:15.811Z,13.86
2023-01-13T11:30:02.116Z,14.08
2023-01-13T11:32:43.641Z,14.17
2023-01-13T11:35:20.779Z,13.64
2023-01-13T11:37:56.710Z,13.90
2023-01-13T11:40:35.169Z,14.32
2023-01-13T11:43:14.329Z,13.80
2023-01-13T11:45:48.322Z,14.03
2023-01-13T11:48:27.061Z,14.04
2023-01-13T11:51:06.025Z,14.03
2023-01-13T11:54:00.157Z,14.00
2023-01-13T11:57:02.113Z,13.94
2023-01-13T12:00:02.157Z,14.20
2023-01-13T12:03:02.636Z,14.24
2023-01-13T12:05:40.893Z,13.63
2023-01-13T12:08:20.615Z,13.89
2023-01-13T12:11:06.054Z,13.98
2023-01-13T12:13:52.181Z,14.11
2023-01-13T12:16:28.403Z,14.32
2023-01-13T12:19:26.274Z,13.78
2023-01-13T12:22:15.344Z,12.71
2023-01-13T12:24:52.501Z,12.47
2023-01-13T12:27:33.545Z,12.40
2023-01-13T12:30:16.013Z,12.26
2023-01-13T12:32:48.906Z,12.30
2023-01-13T12:35:34.788Z,12.12
2023-01-13T12:38:16.682Z,12.05
2023-01-13T12:40:57.251Z,11.82
2023-01-13T12:43:40.458Z,11.73
2023-01-13T12:46:40.357Z,11.40
2023-01-13T12:49:22.351Z,11.18
2023-01-13T12:52:25.182Z,11.26
2023-01-13T12:55:16.738Z,11.16
2023-01-13T12:58:17.345Z,11.07
2023-01-13T13:01:01.124Z,10.96
2023-01-13T13:03:34.685Z,11.07
2023-01-13T13:06:13.778Z,11.05
2023-01-13T13:09:03.164Z,11.05
2023-01-13T13:11:58.005Z,11.08
2023-01-13T13:14:57.992Z,11.11
2023-01-13T13:17:44.890Z,11.16
2023-01-13T13:20:44.829Z,11.07
2023-01-13T13:23:32.160Z,11.12
2023-01-13T13:26:04.309Z,11.08
2023-01-13T13:28:44.773Z,11.11
2023-01-13T13:31:31.537Z,11.06
2023-01-13T13:34:18.873Z,11.04
2023-01-13T13:37:05.871Z,11.08
2023-01-13T13:39:49.147Z,11.13
2023-01-13T13:42:36.331Z,11.05
2023-01-13T13:45:40.878Z,11.00
2023-01-13T13:48:26.760Z,10.94
2023-01-13T13:51:02.272Z,10.93
2023-01-13T13:53:36.737Z,10.87
2023-01-13T13:56:19.045Z,10.89
2023-01-13T13:58:52.332Z,10.87
2023-01-13T14:01:31.598Z,10.83
2023-01-13T14:04:14.379Z,10.81
2023-01-13T14:06:53.622Z,10.35
2023-01-13T14:09:25.465Z,9.53
2023-01-13T14:12:04.457Z,9.06
2023-01-13T14:14:34.274Z,8.99
2023-01-13T14:17:07.763Z,8.83
2023-01-13T14:19:44.368Z,8.28
2023-01-13T14:22:19.541Z,8.15
2023-01-13T14:24:55.492Z,8.23
2023-01-13T14:27:28.878Z,8.27
2023-01-13T14:30:02.955Z,8.25
2023-01-13T14:32:40.101Z,8.10
2023-01-13T14:35:11.104Z,7.99
2023-01-13T14:37:44.102Z,7.78
2023-01-13T14:40:47.596Z,7.90
2023-01-13T14:43:21.293Z,7.81
2023-01-13T14:46:02.493Z,7.73
2023-01-13T14:48:38.773Z,7.73
2023-01-13T14:51:13.293Z,7.72
2023-01-13T14:53:47.010Z,7.66
2023-01-13T14:56:47.788Z,7.61
2023-01-13T14:59:36.357Z,7.56
2023-01-13T15:02:46.707Z,7.55
2023-01-13T15:05:37.650Z,7.59
2023-01-13T15:08:29.142Z,7.57
2023-01-13T15:11:02.522Z,7.52
2023-01-13T15:13:52.011Z,7.70
2023-01-13T15:16:26.064Z,7.76
2023-01-13T15:18:57.423Z,7.66
2023-01-13T15:21:29.829Z,7.43
2023-01-13T15:23:59.984Z,7.37
2023-01-13T15:26:32.224Z,7.42
2023-01-13T15:29:02.914Z,7.32
2023-01-13T15:31:32.895Z,7.26
2023-01-13T15:34:02.790Z,7.37
2023-01-13T15:36:38.217Z,7.37
2023-01-13T15:39:09.788Z,7.29
2023-01-13T15:41:52.070Z,7.25
2023-01-13T15:44:34.476Z,7.18
2023-01-13T15:47:08.003Z,6.99
2023-01-13T15:49:42.267Z,6.96
2023-01-13T15:52:22.937Z,6.99
2023-01-13T15:54:54.138Z,6.96
2023-01-13T15:57:26.439Z,6.92
2023-01-13T16:00:00.375Z,6.91
2023-01-13T16:02:31.109Z,6.90
2023-01-13T16:05:01.039Z,6.92
2023-01-13T16:07:36.050Z,6.93
2023-01-13T16:10:06.549Z,6.90
2023-01-13T16:12:37.613Z,6.99
2023-01-13T16:15:08.163Z,6.99
2023-01-13T16:17:38.837Z,7.01
2023-01-13T16:20:14.649Z,7.00
2023-01-13T16:22:48.194Z,7.04
2023-01-13T16:25:20.197Z,7.02
2023-01-13T16:27:51.073Z,6.97
2023-01-13T16:30:26.526Z,6.98
2023-01-13T16:32:56.444Z,6.90
2023-01-13T16:35:28.657Z,6.94
2023-01-13T16:38:01.191Z,6.87
2023-01-13T16:40:33.502Z,6.96
2023-01-13T16:43:06.787Z,6.94
2023-01-13T16:45:36.921Z,6.97
2023-01-13T16:48:07.599Z,6.91
2023-01-13T16:50:41.048Z,6.89
2023-01-13T16:53:14.962Z,6.90
2023-01-13T16:55:46.155Z,6.88
2023-01-13T16:58:20.651Z,6.98
2023-01-13T17:00:53.026Z,7.01
2023-01-13T17:03:23.075Z,6.98
2023-01-13T17:05:52.933Z,6.95
2023-01-13T17:08:26.179Z,6.91
2023-01-13T17:10:56.046Z,6.91
2023-01-13T17:13:26.754Z,6.83
2023-01-13T17:15:58.660Z,6.83
2023-01-13T17:18:28.562Z,6.79
2023-01-13T17:20:58.871Z,6.80
2023-01-13T17:23:31.682Z,6.88
2023-01-13T17:26:01.628Z,6.97
2023-01-13T17:28:31.529Z,6.98
2023-01-13T17:31:01.412Z,6.98
2023-01-13T17:33:37.171Z,7.04
2023-01-13T17:36:08.172Z,7.06
2023-01-13T17:38:40.582Z,7.07
2023-01-13T17:41:10.423Z,7.12
2023-01-13T17:43:41.264Z,7.21
2023-01-13T17:46:12.589Z,7.25
2023-01-13T17:48:42.455Z,7.29
2023-01-13T17:51:15.525Z,7.31
2023-01-13T17:53:49.205Z,7.31
2023-01-13T17:56:19.341Z,7.33
2023-01-13T17:58:49.530Z,7.34
2023-01-13T18:01:22.621Z,7.31
2023-01-13T18:03:52.928Z,7.35
2023-01-13T18:06:26.085Z,7.33
2023-01-13T18:08:58.809Z,7.34
2023-01-13T18:11:29.540Z,7.30
2023-01-13T18:14:00.353Z,7.31
2023-01-13T18:16:32.179Z,7.30
2023-01-13T18:19:14.890Z,7.27
2023-01-13T18:21:57.852Z,7.26
2023-01-13T18:24:42.847Z,7.25
2023-01-13T18:27:23.022Z,7.20
2023-01-13T18:29:54.897Z,7.21
2023-01-13T18:32:32.927Z,8.82
2023-01-13T18:35:06.695Z,9.80
2023-01-13T18:37:38.839Z,8.90
2023-01-13T18:40:14.551Z,9.43
2023-01-13T18:42:51.430Z,8.80
2023-01-13T18:45:22.125Z,8.44
2023-01-13T18:47:52.075Z,8.36
2023-01-13T18:50:23.152Z,8.19
2023-01-13T18:52:53.879Z,7.62
2023-01-13T18:55:28.703Z,7.50
2023-01-13T18:57:59.745Z,7.34
2023-01-13T19:00:31.152Z,7.30
2023-01-13T19:05:38.359Z,7.13
2023-01-13T19:08:08.744Z,7.09
2023-01-13T19:10:42.291Z,6.99
2023-01-13T19:13:13.151Z,6.98
2023-01-13T19:15:43.037Z,6.91
2023-01-13T19:18:14.342Z,6.86
2023-01-13T19:20:44.238Z,6.76
2023-01-13T19:23:14.044Z,6.75
2023-01-13T19:25:46.814Z,6.74
2023-01-13T19:28:16.629Z,6.65
2023-01-13T19:30:46.569Z,6.66
2023-01-13T19:33:16.840Z,6.59
2023-01-13T19:35:46.781Z,6.63
2023-01-13T19:38:16.600Z,6.63
2023-01-13T19:40:54.977Z,6.60
2023-01-13T19:43:37.911Z,6.59
2023-01-13T19:46:08.108Z,6.62
2023-01-13T19:48:38.293Z,6.67
2023-01-13T19:51:09.508Z,6.72
2023-01-13T19:53:39.531Z,6.74
2023-01-13T19:56:15.992Z,6.74
2023-01-13T19:58:50.585Z,6.78
2023-01-13T20:01:21.271Z,6.78
2023-01-13T20:03:51.187Z,6.82
2023-01-13T20:06:21.086Z,6.84
2023-01-13T20:08:51.093Z,6.84
2023-01-13T20:11:31.405Z,6.86
2023-01-13T20:14:02.914Z,6.91
2023-01-13T20:16:34.292Z,6.87
2023-01-13T20:19:04.319Z,6.91
2023-01-13T20:21:34.827Z,6.78
2023-01-13T20:24:05.185Z,6.73
2023-01-13T20:26:39.976Z,6.59
2023-01-13T20:29:09.847Z,6.52
2023-01-13T20:31:40.450Z,6.50
2023-01-13T20:34:10.743Z,6.41
2023-01-13T20:36:43.395Z,6.35
2023-01-13T20:39:18.183Z,6.31
2023-01-13T20:42:03.359Z,6.30
2023-01-13T20:44:34.010Z,6.26
2023-01-13T20:47:05.054Z,6.26
2023-01-13T20:49:36.173Z,6.29
2023-01-13T20:52:09.920Z,6.24
2023-01-13T20:54:40.356Z,6.21
2023-01-13T20:57:14.536Z,6.18
2023-01-13T20:59:45.801Z,6.18
2023-01-13T21:02:18.230Z,6.11
2023-01-13T21:04:48.387Z,6.12
2023-01-13T21:07:18.247Z,6.08
2023-01-13T21:09:48.525Z,6.05
2023-01-13T21:12:33.474Z,6.00
2023-01-13T21:15:16.490Z,5.98
2023-01-13T21:17:59.719Z,5.96
2023-01-13T21:20:30.900Z,5.97
2023-01-13T21:23:01.302Z,5.94
2023-01-13T21:25:33.979Z,5.85
2023-01-13T21:28:11.446Z,5.83
2023-01-13T21:30:42.101Z,5.78
2023-01-13T21:33:16.165Z,5.70
2023-01-13T21:35:46.005Z,5.60
2023-01-13T21:38:15.828Z,5.55
2023-01-13T21:40:45.780Z,6.21
2023-01-13T21:43:30.617Z,6.30
2023-01-13T21:46:12.956Z,6.06
2023-01-13T21:48:42.790Z,5.68
2023-01-13T21:51:12.629Z,5.53
2023-01-13T21:53:42.481Z,5.58
2023-01-13T21:56:12.299Z,5.44
2023-01-13T21:58:45.064Z,5.39
2023-01-13T22:01:15.028Z,5.37
2023-01-13T22:03:57.382Z,5.34
2023-01-13T22:06:28.750Z,5.30
2023-01-13T22:09:01.039Z,5.22
2023-01-13T22:11:31.909Z,5.24
2023-01-13T22:14:10.278Z,5.22
2023-01-13T22:16:50.009Z,5.17
2023-01-13T22:19:20.028Z,5.14
2023-01-13T22:21:49.914Z,5.06
2023-01-13T22:24:19.908Z,5.09
2023-01-13T22:26:49.778Z,5.05
2023-01-13T22:29:22.313Z,4.95
2023-01-13T22:31:52.337Z,4.97
2023-01-13T22:34:22.512Z,4.95
2023-01-13T22:36:52.344Z,4.98
2023-01-13T22:39:22.781Z,4.96
2023-01-13T22:41:52.651Z,4.87
2023-01-13T22:44:25.400Z,4.86
2023-01-13T22:46:55.685Z,4.84
2023-01-13T22:49:25.523Z,4.81
2023-01-13T22:51:56.038Z,4.77
2023-01-13T22:54:26.122Z,4.78
2023-01-13T22:56:55.947Z,4.77
2023-01-13T22:59:28.416Z,4.80
2023-01-13T23:01:58.327Z,4.79
2023-01-13T23:04:28.194Z,4.85
2023-01-13T23:06:58.033Z,4.86
2023-01-13T23:09:29.882Z,4.82
2023-01-13T23:12:00.927Z,4.86
2023-01-13T23:14:36.244Z,4.88
2023-01-13T23:17:07.098Z,4.88
2023-01-13T23:19:36.935Z,4.87
2023-01-13T23:22:06.751Z,4.84
2023-01-13T23:24:36.570Z,4.86
2023-01-13T23:27:06.567Z,4.80
2023-01-13T23:29:39.076Z,4.76
2023-01-13T23:32:09.139Z,4.79
2023-01-13T23:34:38.957Z,4.78
2023-01-13T23:37:08.756Z,4.72
2023-01-13T23:39:38.581Z,4.77
2023-01-13T23:42:08.448Z,4.79
2023-01-13T23:44:40.926Z,4.79
2023-01-13T23:47:12.048Z,4.82
2023-01-13T23:49:41.895Z,4.82
2023-01-13T23:52:11.761Z,4.78
2023-01-13T23:54:41.564Z,4.84
2023-01-13T23:57:11.409Z,4.82
2023-01-13T23:59:43.833Z,4.83
